Observation data for Knox City on 01/18/2019      Previous  Date  Next       Current Mesonet Observations  Soil Data  Daily Summary Page  Observations in Plain Language
KKN1 180600Z 20004KT 07/05 A3003 RMK A01 T00680048  RH  089%=      5-min Rain = 0
KKN1 180605Z 19005KT 07/05 A3003 RMK A01 T00670047  RH  089%=      5-min Rain = 0
KKN1 180610Z 18005KT 07/05 A3003 RMK A01 T00660047  RH  090%=      5-min Rain = 0
KKN1 180615Z 19005KT 07/05 A3003 RMK A01 T00650047  RH  090%=      5-min Rain = 0
KKN1 180620Z 19004KT 06/05 A3003 RMK A01 T00640046  RH  090%=      5-min Rain = 0
KKN1 180625Z 19005KT 06/05 A3003 RMK A01 T00630046  RH  091%=      5-min Rain = 0
KKN1 180630Z 19006KT 06/05 A3002 RMK A01 T00620045  RH  091%=      5-min Rain = 0
KKN1 180635Z 19005KT 06/05 A3002 RMK A01 T00610045  RH  091%=      5-min Rain = 0
KKN1 180640Z 19005KT 06/04 A3002 RMK A01 T00590044  RH  092%=      5-min Rain = 0
KKN1 180645Z 20004KT 06/04 A3002 RMK A01 T00580043  RH  092%=      5-min Rain = 0
KKN1 180650Z 23003KT 06/04 A3002 RMK A01 T00570043  RH  092%=      5-min Rain = 0
KKN1 180655Z 26002KT 05/03 A3002 RMK A01 T00480034  RH  092%=      5-min Rain = 0
KKN1 180700Z 26002KT 04/03 A3002 RMK A01 T00410029  RH  093%=      5-min Rain = 0
KKN1 180705Z 25002KT 04/03 A3002 RMK A01 T00410031  RH  095%=      5-min Rain = 0
KKN1 180710Z 25001KT 04/03 A3002 RMK A01 T00430034  RH  096%=      5-min Rain = 0
KKN1 180715Z 26001KT 05/04 A3001 RMK A01 T00470039  RH  097%=      5-min Rain = 0
KKN1 180720Z 29002KT 04/04 A3001 RMK A01 T00440035  RH  096%=      5-min Rain = 0
KKN1 180725Z 28001KT 04/03 A3001 RMK A01 T00420034  RH  096%=      5-min Rain = 0
KKN1 180730Z 21002KT 05/04 A3001 RMK A01 T00460039  RH  097%=      5-min Rain = 0
KKN1 180735Z 19003KT 05/04 A30 RMK A01 T00470040  RH  097%=      5-min Rain = 0
KKN1 180740Z 18004KT 04/03 A30 RMK A01 T00410033  RH  096%=      5-min Rain = 0
KKN1 180745Z 17004KT 04/03 A2999 RMK A01 T00390031  RH  096%=      5-min Rain = 0
KKN1 180750Z 17003KT 04/03 A2999 RMK A01 T00380031  RH  097%=      5-min Rain = 0
KKN1 180755Z 17002KT 04/03 A2999 RMK A01 T00380031  RH  097%=      5-min Rain = 0
KKN1 180800Z 17002KT 04/03 A2998 RMK A01 T00380031  RH  097%=      5-min Rain = 0
KKN1 180805Z 15002KT 04/03 A2998 RMK A01 T00380032  RH  097%=      5-min Rain = 0
KKN1 180810Z 15001KT 04/04 A2998 RMK A01 T00410035  RH  098%=      5-min Rain = 0
KKN1 180815Z 18001KT 05/04 A2998 RMK A01 T00460041  RH  098%=      5-min Rain = 0
KKN1 180820Z 18003KT 05/05 A2998 RMK A01 T00510045  RH  098%=      5-min Rain = 0
KKN1 180825Z 20003KT 05/04 A2998 RMK A01 T00500043  RH  097%=      5-min Rain = 0
KKN1 180830Z 21003KT 05/04 A2998 RMK A01 T00460037  RH  096%=      5-min Rain = 0
KKN1 180835Z 20004KT 04/03 A2998 RMK A01 T00390029  RH  095%=      5-min Rain = 0
KKN1 180840Z 20004KT 03/02 A2998 RMK A01 T00320023  RH  095%=      5-min Rain = 0
KKN1 180845Z 20005KT 03/02 A2997 RMK A01 T00320024  RH  096%=      5-min Rain = 0
KKN1 180850Z 20004KT 04/03 A2997 RMK A01 T00350027  RH  097%=      5-min Rain = 0
KKN1 180855Z 21004KT 03/03 A2997 RMK A01 T00330025  RH  096%=      5-min Rain = 0
KKN1 180900Z 21005KT 03/03 A2997 RMK A01 T00320025  RH  096%=      5-min Rain = 0
KKN1 180905Z 21005KT 03/03 A2997 RMK A01 T00320025  RH  097%=      5-min Rain = 0
KKN1 180910Z 20006KT 04/03 A2997 RMK A01 T00350028  RH  097%=      5-min Rain = 0
KKN1 180915Z 20005KT 04/03 A2997 RMK A01 T00360029  RH  097%=      5-min Rain = 0
KKN1 180920Z 20004KT 04/03 A2997 RMK A01 T00350029  RH  097%=      5-min Rain = 0
KKN1 180925Z 20003KT 04/03 A2996 RMK A01 T00360030  RH  097%=      5-min Rain = 0
KKN1 180930Z 20003KT 04/03 A2996 RMK A01 T00350028  RH  097%=      5-min Rain = 0
KKN1 180935Z 20003KT 03/03 A2996 RMK A01 T00340027  RH  097%=      5-min Rain = 0
KKN1 180940Z 21002KT 03/02 A2996 RMK A01 T00310024  RH  097%=      5-min Rain = 0
KKN1 180945Z 23003KT 03/03 A2995 RMK A01 T00320026  RH  097%=      5-min Rain = 0
KKN1 180950Z 21004KT 04/03 A2995 RMK A01 T00380033  RH  098%=      5-min Rain = 0
KKN1 180955Z 20005KT 04/04 A2995 RMK A01 T00430037  RH  098%=      5-min Rain = 0
KKN1 181000Z 19006KT 04/03 A2994 RMK A01 T00380030  RH  096%=      5-min Rain = 0
KKN1 181005Z 18007KT 04/03 A2994 RMK A01 T00360029  RH  096%=      5-min Rain = 0
KKN1 181010Z 17008KT 04/03 A2993 RMK A01 T00390031  RH  097%=      5-min Rain = 0
KKN1 181015Z 17007KT 05/04 A2993 RMK A01 T00460038  RH  096%=      5-min Rain = 0
KKN1 181020Z 18007KT 05/04 A2993 RMK A01 T00510042  RH  095%=      5-min Rain = 0
KKN1 181025Z 18007KT 06/04 A2993 RMK A01 T00560042  RH  093%=      5-min Rain = 0
KKN1 181030Z 18007KT 06/04 A2992 RMK A01 T00550041  RH  092%=      5-min Rain = 0
KKN1 181035Z 18008KT 06/04 A2991 RMK A01 T00550041  RH  093%=      5-min Rain = 0
KKN1 181040Z 17009KT 06/05 A299 RMK A01 T00610045  RH  091%=      5-min Rain = 0
KKN1 181045Z 18009KT 07/05 A299 RMK A01 T00650046  RH  090%=      5-min Rain = 0
KKN1 181050Z 17009KT 07/05 A299 RMK A01 T00670047  RH  089%=      5-min Rain = 0
KKN1 181055Z 18008KT 07/05 A299 RMK A01 T00680047  RH  088%=      5-min Rain = 0
KKN1 181100Z 19008KT 07/05 A299 RMK A01 T00710048  RH  087%=      5-min Rain = 0
KKN1 181105Z 19009KT 07/05 A2989 RMK A01 T00720048  RH  087%=      5-min Rain = 0
KKN1 181110Z 19009KT 07/05 A2989 RMK A01 T00720048  RH  086%=      5-min Rain = 0
KKN1 181115Z 19009KT 07/05 A2989 RMK A01 T00710048  RH  087%=      5-min Rain = 0
KKN1 181120Z 19009KT 07/05 A2988 RMK A01 T00700047  RH  087%=      5-min Rain = 0
KKN1 181125Z 19009KT 07/05 A2987 RMK A01 T00680046  RH  088%=      5-min Rain = 0
KKN1 181130Z 19009KT 07/05 A2987 RMK A01 T00700048  RH  088%=      5-min Rain = 0
KKN1 181135Z 20007KT 07/05 A2987 RMK A01 T00710048  RH  087%=      5-min Rain = 0
KKN1 181140Z 21007KT 07/05 A2987 RMK A01 T00700047  RH  087%=      5-min Rain = 0
KKN1 181145Z 21006KT 07/04 A2987 RMK A01 T00660044  RH  088%=      5-min Rain = 0
KKN1 181150Z 22006KT 07/05 A2987 RMK A01 T00660046  RH  089%=      5-min Rain = 0
KKN1 181155Z 22006KT 07/05 A2987 RMK A01 T00690047  RH  088%=      5-min Rain = 0
KKN1 181200Z 21008KT 07/05 A2988 RMK A01 T00700047  RH  087%=      5-min Rain = 0
KKN1 181205Z 21009KT 07/05 A2987 RMK A01 T00740048  RH  086%=      5-min Rain = 0
KKN1 181210Z 23006KT 07/05 A2988 RMK A01 T00710046  RH  085%=      5-min Rain = 0
KKN1 181215Z 23005KT 06/04 A2987 RMK A01 T00600036  RH  086%=      5-min Rain = 0
KKN1 181220Z 24005KT 05/03 A2987 RMK A01 T00520034  RH  089%=      5-min Rain = 0
KKN1 181225Z 24005KT 05/03 A2987 RMK A01 T00490032  RH  090%=      5-min Rain = 0
KKN1 181230Z 24005KT 05/03 A2987 RMK A01 T00460032  RH  092%=      5-min Rain = 0
KKN1 181235Z 25005KT 05/03 A2986 RMK A01 T00460032  RH  092%=      5-min Rain = 0
KKN1 181240Z 24004KT 05/03 A2986 RMK A01 T00460032  RH  092%=      5-min Rain = 0
KKN1 181245Z 21004KT 04/03 A2985 RMK A01 T00440030  RH  093%=      5-min Rain = 0
KKN1 181250Z 21004KT 04/03 A2985 RMK A01 T00410029  RH  094%=      5-min Rain = 0
KKN1 181255Z 21004KT 04/03 A2985 RMK A01 T00380027  RH  094%=      5-min Rain = 0
KKN1 181300Z 20004KT 04/03 A2985 RMK A01 T00360026  RH  095%=      5-min Rain = 0
KKN1 181305Z 21003KT 04/03 A2985 RMK A01 T00400031  RH  096%=      5-min Rain = 0
KKN1 181310Z 21003KT 04/03 A2985 RMK A01 T00420033  RH  096%=      5-min Rain = 0
KKN1 181315Z 22003KT 04/03 A2985 RMK A01 T00440034  RH  095%=      5-min Rain = 0
KKN1 181320Z 20004KT 04/03 A2985 RMK A01 T00440033  RH  095%=      5-min Rain = 0
KKN1 181325Z 20004KT 04/03 A2985 RMK A01 T00390028  RH  094%=      5-min Rain = 0
KKN1 181330Z 20003KT 04/03 A2985 RMK A01 T00390029  RH  095%=      5-min Rain = 0
KKN1 181335Z 21003KT 04/03 A2985 RMK A01 T00420032  RH  095%=      5-min Rain = 0
KKN1 181340Z 22003KT 05/04 A2985 RMK A01 T00450035  RH  095%=      5-min Rain = 0
KKN1 181345Z 21003KT 05/04 A2984 RMK A01 T00460037  RH  095%=      5-min Rain = 0
KKN1 181350Z 22003KT 05/04 A2984 RMK A01 T00470036  RH  095%=      5-min Rain = 0
KKN1 181355Z 21004KT 05/04 A2984 RMK A01 T00480037  RH  094%=      5-min Rain = 0
KKN1 181400Z 22003KT 05/04 A2984 RMK A01 T00490038  RH  094%=      5-min Rain = 0
KKN1 181405Z 21003KT 05/04 A2984 RMK A01 T00500039  RH  094%=      5-min Rain = 0
KKN1 181410Z 21004KT 05/04 A2984 RMK A01 T00500036  RH  093%=      5-min Rain = 0
KKN1 181415Z 21005KT 05/04 A2984 RMK A01 T00480035  RH  092%=      5-min Rain = 0
KKN1 181420Z 19006KT 05/04 A2983 RMK A01 T00490036  RH  093%=      5-min Rain = 0
KKN1 181425Z 19006KT 06/04 A2983 RMK A01 T00570042  RH  092%=      5-min Rain = 0
KKN1 181430Z 19006KT 06/04 A2983 RMK A01 T00640044  RH  089%=      5-min Rain = 0
KKN1 181435Z 19007KT 07/05 A2982 RMK A01 T00720048  RH  087%=      5-min Rain = 0
KKN1 181440Z 18007KT 08/05 A2982 RMK A01 T00760050  RH  085%=      5-min Rain = 0
KKN1 181445Z 18005KT 08/05 A2982 RMK A01 T00800052  RH  084%=      5-min Rain = 0
KKN1 181450Z 20005KT 08/05 A2982 RMK A01 T00830053  RH  083%=      5-min Rain = 0
KKN1 181455Z 21004KT 09/05 A2983 RMK A01 T00880054  RH  082%=      5-min Rain = 0
KKN1 181500Z 21004KT 09/06 A2983 RMK A01 T00910055  RH  080%=      5-min Rain = 0
KKN1 181505Z 19005KT 09/06 A2982 RMK A01 T00930055  RH  079%=      5-min Rain = 0
KKN1 181510Z 19005KT 10/06 A2982 RMK A01 T00960059  RH  079%=      5-min Rain = 0
KKN1 181515Z 20005KT 10/06 A2982 RMK A01 T00990059  RH  078%=      5-min Rain = 0
KKN1 181520Z 19007KT 10/06 A2982 RMK A01 T01030059  RH  076%=      5-min Rain = 0
KKN1 181525Z 20008KT 11/06 A2982 RMK A01 T01070058  RH  074%=      5-min Rain = 0
KKN1 181530Z 21008KT 11/06 A2982 RMK A01 T01100057  RH  071%=      5-min Rain = 0
KKN1 181535Z 21010KT 11/06 A2982 RMK A01 T01140056  RH  069%=      5-min Rain = 0
KKN1 181540Z 21009KT 12/06 A2982 RMK A01 T01180059  RH  069%=      5-min Rain = 0
KKN1 181545Z 20008KT 12/06 A2982 RMK A01 T01210060  RH  068%=      5-min Rain = 0
KKN1 181550Z 21007KT 13/06 A2982 RMK A01 T01260061  RH  066%=      5-min Rain = 0
KKN1 181555Z 22009G14KT 13/06 A2982 RMK A01 T01290060  RH  064%=      5-min Rain = 0
KKN1 181600Z 22009KT 13/06 A2982 RMK A01 T01270059  RH  065%=      5-min Rain = 0
KKN1 181605Z 22007KT 13/06 A2982 RMK A01 T01290062  RH  065%=      5-min Rain = 0
KKN1 181610Z 22008KT 14/07 A2982 RMK A01 T01360068  RH  065%=      5-min Rain = 0
KKN1 181615Z 22009G14KT 14/07 A2982 RMK A01 T01420066  RH  062%=      5-min Rain = 0
KKN1 181620Z 22011KT 14/06 A2982 RMK A01 T01410063  RH  061%=      5-min Rain = 0
KKN1 181625Z 22009KT 14/06 A2982 RMK A01 T01410064  RH  061%=      5-min Rain = 0
KKN1 181630Z 21009KT 15/07 A2981 RMK A01 T01460067  RH  061%=      5-min Rain = 0
KKN1 181635Z 22009KT 15/07 A2981 RMK A01 T01470066  RH  060%=      5-min Rain = 0
KKN1 181640Z 22007KT 15/07 A2981 RMK A01 T01480068  RH  060%=      5-min Rain = 0
KKN1 181645Z 22008KT 15/07 A2981 RMK A01 T01500068  RH  060%=      5-min Rain = 0
KKN1 181650Z 22007G12KT 16/07 A2981 RMK A01 T01580073  RH  058%=      5-min Rain = 0
KKN1 181655Z 22009KT 16/07 A298 RMK A01 T01620071  RH  056%=      5-min Rain = 0
KKN1 181700Z 22009KT 17/07 A298 RMK A01 T01710072  RH  054%=      5-min Rain = 0
KKN1 181705Z 22010KT 17/07 A2979 RMK A01 T01710070  RH  053%=      5-min Rain = 0
KKN1 181710Z 22011KT 17/07 A2979 RMK A01 T01710071  RH  053%=      5-min Rain = 0
KKN1 181715Z 21011KT 18/07 A2978 RMK A01 T01770071  RH  051%=      5-min Rain = 0
KKN1 181720Z 20012KT 18/07 A2978 RMK A01 T01770068  RH  050%=      5-min Rain = 0
KKN1 181725Z 21010KT 18/07 A2978 RMK A01 T01780068  RH  050%=      5-min Rain = 0
KKN1 181730Z 21010G16KT 18/07 A2978 RMK A01 T01820071  RH  049%=      5-min Rain = 0
KKN1 181735Z 22011KT 18/07 A2977 RMK A01 T01840068  RH  048%=      5-min Rain = 0
KKN1 181740Z 22009KT 19/07 A2977 RMK A01 T01900072  RH  048%=      5-min Rain = 0
KKN1 181745Z 23011KT 19/07 A2976 RMK A01 T01930069  RH  046%=      5-min Rain = 0
KKN1 181750Z 23011KT 19/07 A2975 RMK A01 T01930069  RH  045%=      5-min Rain = 0
KKN1 181755Z 23011KT 20/07 A2975 RMK A01 T01960070  RH  045%=      5-min Rain = 0
KKN1 181800Z 23012KT 20/07 A2974 RMK A01 T02010070  RH  044%=      5-min Rain = 0
KKN1 181805Z 23012G17KT 21/07 A2974 RMK A01 T02050069  RH  042%=      5-min Rain = 0
KKN1 181810Z 23013G19KT 21/07 A2973 RMK A01 T02100069  RH  041%=      5-min Rain = 0
KKN1 181815Z 23013G18KT 21/07 A2972 RMK A01 T02130067  RH  040%=      5-min Rain = 0
KKN1 181820Z 23014G19KT 21/07 A2972 RMK A01 T02140065  RH  039%=      5-min Rain = 0
KKN1 181825Z 23017KT 22/06 A2971 RMK A01 T02160060  RH  037%=      5-min Rain = 0
KKN1 181830Z 22016G21KT 22/06 A2971 RMK A01 T02180060  RH  037%=      5-min Rain = 0
KKN1 181835Z 22017KT 22/06 A297 RMK A01 T02190061  RH  037%=      5-min Rain = 0
KKN1 181840Z 22016KT 22/06 A2969 RMK A01 T02210062  RH  037%=      5-min Rain = 0
KKN1 181845Z 22017G22KT 22/06 A2969 RMK A01 T02240061  RH  036%=      5-min Rain = 0
KKN1 181850Z 22017G24KT 23/06 A2968 RMK A01 T02260059  RH  035%=      5-min Rain = 0
KKN1 181855Z 23017G22KT 23/06 A2968 RMK A01 T02270058  RH  034%=      5-min Rain = 0
KKN1 181900Z 23015G23KT 23/06 A2967 RMK A01 T02290058  RH  034%=      5-min Rain = 0
KKN1 181905Z 23015G22KT 23/06 A2967 RMK A01 T02280058  RH  034%=      5-min Rain = 0
KKN1 181910Z 23015G21KT 23/06 A2966 RMK A01 T02310056  RH  033%=      5-min Rain = 0
KKN1 181915Z 25014G21KT 23/05 A2966 RMK A01 T02300050  RH  032%=      5-min Rain = 0
KKN1 181920Z 23018KT 23/05 A2965 RMK A01 T02280045  RH  031%=      5-min Rain = 0
KKN1 181925Z 24017KT 23/05 A2965 RMK A01 T02280046  RH  031%=      5-min Rain = 0
KKN1 181930Z 24016G23KT 23/04 A2964 RMK A01 T02300044  RH  030%=      5-min Rain = 0
KKN1 181935Z 25014G19KT 23/04 A2964 RMK A01 T02310044  RH  030%=      5-min Rain = 0
KKN1 181940Z 24014G22KT 23/05 A2964 RMK A01 T02300045  RH  031%=      5-min Rain = 0
KKN1 181945Z 24014G20KT 23/05 A2964 RMK A01 T02280045  RH  031%=      5-min Rain = 0
KKN1 181950Z 25011G18KT 23/05 A2964 RMK A01 T02250048  RH  032%=      5-min Rain = 0
KKN1 181955Z 25014G19KT 23/04 A2963 RMK A01 T02250043  RH  031%=      5-min Rain = 0
KKN1 182000Z 25013G19KT 23/05 A2963 RMK A01 T02260045  RH  031%=      5-min Rain = 0
KKN1 182005Z 25011KT 23/05 A2962 RMK A01 T02260047  RH  032%=      5-min Rain = 0
KKN1 182010Z 25009G14KT 23/05 A2962 RMK A01 T02260049  RH  032%=      5-min Rain = 0
KKN1 182015Z 25010G16KT 23/05 A2961 RMK A01 T02260047  RH  032%=      5-min Rain = 0
KKN1 182020Z 26008KT 23/05 A2961 RMK A01 T02260053  RH  033%=      5-min Rain = 0
KKN1 182025Z 25007KT 23/05 A2961 RMK A01 T02270053  RH  033%=      5-min Rain = 0
KKN1 182030Z 25008KT 23/05 A296 RMK A01 T02280054  RH  033%=      5-min Rain = 0
KKN1 182035Z 24009KT 23/05 A296 RMK A01 T02300050  RH  032%=      5-min Rain = 0
KKN1 182040Z 24007KT 23/05 A296 RMK A01 T02310054  RH  032%=      5-min Rain = 0
KKN1 182045Z 24008KT 23/05 A296 RMK A01 T02320052  RH  032%=      5-min Rain = 0
KKN1 182050Z 23008KT 23/05 A2959 RMK A01 T02330050  RH  031%=      5-min Rain = 0
KKN1 182055Z 24011G17KT 24/05 A2959 RMK A01 T02360045  RH  030%=      5-min Rain = 0
KKN1 182100Z 25010G16KT 24/05 A2959 RMK A01 T02370049  RH  030%=      5-min Rain = 0
KKN1 182105Z 26011G17KT 24/05 A2959 RMK A01 T02390050  RH  030%=      5-min Rain = 0
KKN1 182110Z 26014G22KT 24/04 A2958 RMK A01 T02420041  RH  028%=      5-min Rain = 0
KKN1 182115Z 26015G20KT 24/03 A2958 RMK A01 T02420034  RH  026%=      5-min Rain = 0
KKN1 182120Z 25019G29KT 24/03 A2958 RMK A01 T02410029  RH  026%=      5-min Rain = 0
KKN1 182125Z 25020G29KT 24/03 A2958 RMK A01 T02370027  RH  026%=      5-min Rain = 0
KKN1 182130Z 25020G30KT 24/03 A2958 RMK A01 T02380028  RH  026%=      5-min Rain = 0
KKN1 182135Z 26019G29KT 24/03 A2959 RMK A01 T02370028  RH  026%=      5-min Rain = 0
KKN1 182140Z 26016G24KT 23/03 A2959 RMK A01 T02330030  RH  027%=      5-min Rain = 0
KKN1 182145Z 25015G22KT 24/03 A2959 RMK A01 T02360031  RH  027%=      5-min Rain = 0
KKN1 182150Z 26017G23KT 24/03 A2959 RMK A01 T02390028  RH  026%=      5-min Rain = 0
KKN1 182155Z 26018G26KT 24/03 A2958 RMK A01 T02360029  RH  026%=      5-min Rain = 0
KKN1 182200Z 26015G23KT 23/03 A2959 RMK A01 T02330029  RH  027%=      5-min Rain = 0
KKN1 182205Z 26016G28KT 23/03 A2959 RMK A01 T02320029  RH  027%=      5-min Rain = 0
KKN1 182210Z 26016G23KT 23/03 A2959 RMK A01 T02310026  RH  026%=      5-min Rain = 0
KKN1 182215Z 25013G21KT 23/03 A2959 RMK A01 T02300028  RH  027%=      5-min Rain = 0
KKN1 182220Z 25013G20KT 23/03 A2959 RMK A01 T02290029  RH  027%=      5-min Rain = 0
KKN1 182225Z 25015G21KT 23/03 A2959 RMK A01 T02310026  RH  027%=      5-min Rain = 0
KKN1 182230Z 26018G27KT 23/02 A2959 RMK A01 T02300016  RH  025%=      5-min Rain = 0
KKN1 182235Z 26018G23KT 23/02 A296 RMK A01 T02270015  RH  025%=      5-min Rain = 0
KKN1 182240Z 26017G23KT 23/02 A296 RMK A01 T02270015  RH  025%=      5-min Rain = 0
KKN1 182245Z 26014G20KT 23/02 A296 RMK A01 T02260018  RH  026%=      5-min Rain = 0
KKN1 182250Z 26018G25KT 23/02 A296 RMK A01 T02250017  RH  026%=      5-min Rain = 0
KKN1 182255Z 26015G22KT 22/02 A296 RMK A01 T02230018  RH  026%=      5-min Rain = 0
KKN1 182300Z 26013G19KT 22/02 A296 RMK A01 T02210020  RH  027%=      5-min Rain = 0
KKN1 182305Z 25015G21KT 22/02 A296 RMK A01 T02190019  RH  027%=      5-min Rain = 0
KKN1 182310Z 26016G24KT 22/02 A296 RMK A01 T02200018  RH  027%=      5-min Rain = 0
KKN1 182315Z 25012KT 22/02 A296 RMK A01 T02180021  RH  028%=      5-min Rain = 0
KKN1 182320Z 25014G21KT 22/02 A296 RMK A01 T02170020  RH  028%=      5-min Rain = 0
KKN1 182325Z 25016G22KT 22/02 A296 RMK A01 T02180020  RH  028%=      5-min Rain = 0
KKN1 182330Z 26014G21KT 22/02 A296 RMK A01 T02160022  RH  028%=      5-min Rain = 0
KKN1 182335Z 26015G22KT 22/02 A296 RMK A01 T02160023  RH  029%=      5-min Rain = 0
KKN1 182340Z 26014G20KT 21/03 A296 RMK A01 T02140025  RH  029%=      5-min Rain = 0
KKN1 182345Z 26014G19KT 21/03 A296 RMK A01 T02130025  RH  029%=      5-min Rain = 0
KKN1 182350Z 26016G22KT 21/03 A2961 RMK A01 T02130025  RH  029%=      5-min Rain = 0
KKN1 182355Z 26015G23KT 21/03 A2961 RMK A01 T02140025  RH  029%=      5-min Rain = 0
KKN1 190000Z 26013G20KT 21/03 A2961 RMK A01 T02110026  RH  030%=      5-min Rain = 0
KKN1 190005Z 26012G18KT 21/03 A2961 RMK A01 T02100027  RH  031%=      5-min Rain = 0
KKN1 190010Z 26013G21KT 21/03 A2961 RMK A01 T02090027  RH  031%=      5-min Rain = 0
KKN1 190015Z 25017G22KT 21/03 A2961 RMK A01 T02100025  RH  030%=      5-min Rain = 0
KKN1 190020Z 25017G24KT 21/02 A2961 RMK A01 T02090024  RH  030%=      5-min Rain = 0
KKN1 190025Z 26018G25KT 21/02 A2962 RMK A01 T02090023  RH  030%=      5-min Rain = 0
KKN1 190030Z 26015G20KT 21/03 A2962 RMK A01 T02050025  RH  031%=      5-min Rain = 0
KKN1 190035Z 26013G18KT 20/03 A2963 RMK A01 T02030025  RH  031%=      5-min Rain = 0
KKN1 190040Z 26012G17KT 20/03 A2963 RMK A01 T02020025  RH  032%=      5-min Rain = 0
KKN1 190045Z 26013G23KT 20/03 A2963 RMK A01 T02010025  RH  031%=      5-min Rain = 0
KKN1 190050Z 26016G23KT 20/02 A2963 RMK A01 T02040016  RH  029%=      5-min Rain = 0
KKN1 190055Z 25017G26KT 21/01 A2962 RMK A01 T02050008  RH  027%=      5-min Rain = 0
KKN1 190100Z 25015G22KT 20/01 A2963 RMK A01 T02040006  RH  027%=      5-min Rain = 0
KKN1 190105Z 25014G19KT 20/01 A2963 RMK A01 T02020007  RH  027%=      5-min Rain = 0
KKN1 190110Z 24017G25KT 20/00 A2963 RMK A01 T02010000  RH  026%=      5-min Rain = 0
KKN1 190115Z 24019G28KT 20/01 A2963 RMK A01 T01990006  RH  028%=      5-min Rain = 0
KKN1 190120Z 23016G21KT 19/01 A2963 RMK A01 T01920014  RH  031%=      5-min Rain = 0
KKN1 190125Z 23013KT 19/02 A2963 RMK A01 T01870017  RH  033%=      5-min Rain = 0
KKN1 190130Z 23012G17KT 18/02 A2963 RMK A01 T01820021  RH  035%=      5-min Rain = 0
KKN1 190135Z 23013KT 18/02 A2965 RMK A01 T01800024  RH  036%=      5-min Rain = 0
KKN1 190140Z 23013KT 18/03 A2965 RMK A01 T01790026  RH  037%=      5-min Rain = 0
KKN1 190145Z 23015KT 18/03 A2965 RMK A01 T01790026  RH  037%=      5-min Rain = 0
KKN1 190150Z 23013KT 18/03 A2965 RMK A01 T01800026  RH  036%=      5-min Rain = 0
KKN1 190155Z 23012G17KT 18/03 A2965 RMK A01 T01780025  RH  036%=      5-min Rain = 0
KKN1 190200Z 24010KT 18/02 A2965 RMK A01 T01790022  RH  035%=      5-min Rain = 0
KKN1 190205Z 24010KT 18/02 A2965 RMK A01 T01790016  RH  034%=      5-min Rain = 0
KKN1 190210Z 26011KT 18/01 A2966 RMK A01 T01830010  RH  032%=      5-min Rain = 0
KKN1 190215Z 27014KT 18/01 A2966 RMK A01 T01820007  RH  031%=      5-min Rain = 0
KKN1 190220Z 27016G21KT 18/00 A2966 RMK A01 T01830002  RH  030%=      5-min Rain = 0
KKN1 190225Z 32021G31KT 17/01 A2968 RMK A01 T01710009  RH  034%=      5-min Rain = 0
KKN1 190230Z 34026G37KT 12/02 A297 RMK A01 T01190020  RH  051%=      5-min Rain = 0
KKN1 190235Z 33026G35KT 10/02 A2972 RMK A01 T01030018  RH  057%=      5-min Rain = 0
KKN1 190240Z 34023G32KT 10/02 A2973 RMK A01 T00950018  RH  060%=      5-min Rain = 0
KKN1 190245Z 34021G31KT 09/02 A2974 RMK A01 T00910019  RH  061%=      5-min Rain = 0
KKN1 190250Z 33022G28KT 09/02 A2976 RMK A01 T00880020  RH  063%=      5-min Rain = 0
KKN1 190255Z 33021G30KT 09/02 A2976 RMK A01 T00850020  RH  065%=      5-min Rain = 0
KKN1 190300Z 34024G35KT 08/02 A2977 RMK A01 T00830021  RH  066%=      5-min Rain = 0
KKN1 190305Z 34020G32KT 08/02 A2977 RMK A01 T00800021  RH  067%=      5-min Rain = 0
KKN1 190310Z 34022G29KT 08/02 A2977 RMK A01 T00800021  RH  068%=      5-min Rain = 0
KKN1 190315Z 33024G31KT 08/02 A2978 RMK A01 T00780021  RH  068%=      5-min Rain = 0
KKN1 190320Z 34024G32KT 08/02 A2978 RMK A01 T00760021  RH  069%=      5-min Rain = 0
KKN1 190325Z 33020G28KT 08/02 A2978 RMK A01 T00750021  RH  070%=      5-min Rain = 0
KKN1 190330Z 33022G28KT 07/02 A2979 RMK A01 T00740022  RH  071%=      5-min Rain = 0
KKN1 190335Z 34020G28KT 07/02 A2979 RMK A01 T00730023  RH  072%=      5-min Rain = 0
KKN1 190340Z 33022G31KT 07/02 A2979 RMK A01 T00730024  RH  072%=      5-min Rain = 0
KKN1 190345Z 33021G32KT 07/03 A298 RMK A01 T00740026  RH  072%=      5-min Rain = 0
KKN1 190350Z 33020G32KT 08/03 A2981 RMK A01 T00760027  RH  072%=      5-min Rain = 0
KKN1 190355Z 32022G28KT 08/03 A2982 RMK A01 T00770026  RH  072%=      5-min Rain = 0
KKN1 190400Z 33023G32KT 08/03 A2983 RMK A01 T00760026  RH  072%=      5-min Rain = 0
KKN1 190405Z 33023G32KT 08/03 A2984 RMK A01 T00750025  RH  071%=      5-min Rain = 0
KKN1 190410Z 33020G27KT 08/02 A2984 RMK A01 T00750024  RH  072%=      5-min Rain = 0
KKN1 190415Z 33022G29KT 08/02 A2984 RMK A01 T00750024  RH  071%=      5-min Rain = 0
KKN1 190420Z 33023G30KT 08/02 A2985 RMK A01 T00750023  RH  071%=      5-min Rain = 0
KKN1 190425Z 32025G32KT 07/02 A2986 RMK A01 T00740021  RH  070%=      5-min Rain = 0
KKN1 190430Z 33021G31KT 07/02 A2986 RMK A01 T00730020  RH  070%=      5-min Rain = 0
KKN1 190435Z 33021G29KT 07/02 A2986 RMK A01 T00720020  RH  071%=      5-min Rain = 0
KKN1 190440Z 33021G28KT 07/02 A2986 RMK A01 T00700018  RH  071%=      5-min Rain = 0
KKN1 190445Z 33024G32KT 07/02 A2986 RMK A01 T00690017  RH  071%=      5-min Rain = 0
KKN1 190450Z 34022G31KT 07/02 A2987 RMK A01 T00690016  RH  070%=      5-min Rain = 0
KKN1 190455Z 34021G27KT 07/02 A2988 RMK A01 T00690016  RH  070%=      5-min Rain = 0
KKN1 190500Z 34023G34KT 07/02 A2989 RMK A01 T00680015  RH  070%=      5-min Rain = 0
KKN1 190505Z 33022G28KT 07/01 A299 RMK A01 T00680014  RH  069%=      5-min Rain = 0
KKN1 190510Z 34021G27KT 07/01 A299 RMK A01 T00680014  RH  070%=      5-min Rain = 0
KKN1 190515Z 33024G32KT 07/01 A2991 RMK A01 T00670012  RH  069%=      5-min Rain = 0
KKN1 190520Z 33026G37KT 07/01 A2991 RMK A01 T00660010  RH  069%=      5-min Rain = 0
KKN1 190525Z 34024G34KT 07/01 A2992 RMK A01 T00650010  RH  069%=      5-min Rain = 0
KKN1 190530Z 34021G29KT 07/01 A2993 RMK A01 T00650010  RH  069%=      5-min Rain = 0
KKN1 190535Z 33024G32KT 06/01 A2993 RMK A01 T00640009  RH  068%=      5-min Rain = 0
KKN1 190540Z 34024G30KT 06/01 A2994 RMK A01 T00640007  RH  068%=      5-min Rain = 0
KKN1 190545Z 33019G27KT 06/01 A2994 RMK A01 T00630007  RH  068%=      5-min Rain = 0
KKN1 190550Z 33020G31KT 06/01 A2995 RMK A01 T00620006  RH  068%=      5-min Rain = 0
KKN1 190555Z 34025G33KT 06/00 A2995 RMK A01 T00590001  RH  067%=      5-min Rain = 0

Page generated in 0.0133 seconds.